createdAt,value
2023-03-26T01:03:21.871Z,10.73
2023-03-26T01:06:02.712Z,7.82
2023-03-26T01:08:36.843Z,10.70
2023-03-26T01:11:13.939Z,8.52
2023-03-26T01:13:49.556Z,10.35
2023-03-26T01:16:22.814Z,9.75
2023-03-26T01:18:50.126Z,9.80
2023-03-26T01:21:28.741Z,11.80
2023-03-26T01:23:57.746Z,9.95
2023-03-26T01:26:46.278Z,9.15
2023-03-26T01:29:22.892Z,9.38
2023-03-26T01:32:18.106Z,9.88
2023-03-26T01:34:49.724Z,9.30
2023-03-26T01:37:44.072Z,8.52
2023-03-26T01:40:31.850Z,10.32
2023-03-26T01:43:29.222Z,12.38
2023-03-26T01:45:58.724Z,9.93
2023-03-26T01:48:31.660Z,10.57
2023-03-26T01:50:58.860Z,12.80
2023-03-26T01:53:26.007Z,12.30
2023-03-26T01:56:13.884Z,12.32
2023-03-26T01:58:59.567Z,9.93
2023-03-26T02:02:11.732Z,11.95
2023-03-26T02:04:48.243Z,8.38
2023-03-26T02:07:51.453Z,9.38
2023-03-26T02:10:26.115Z,8.55
2023-03-26T02:12:53.289Z,11.00
2023-03-26T02:15:20.470Z,10.48
2023-03-26T02:17:47.137Z,9.45
2023-03-26T02:20:14.712Z,9.63
2023-03-26T02:22:45.689Z,8.45
2023-03-26T02:25:15.490Z,8.63
2023-03-26T02:27:42.414Z,7.43
2023-03-26T02:30:12.036Z,8.50
2023-03-26T02:32:39.190Z,7.55
2023-03-26T02:35:08.310Z,13.10
2023-03-26T02:37:34.917Z,8.10
2023-03-26T02:40:01.866Z,8.15
2023-03-26T02:42:28.502Z,8.10
2023-03-26T02:44:55.251Z,7.30
2023-03-26T02:47:22.009Z,8.15
2023-03-26T02:49:48.692Z,5.07
2023-03-26T02:52:18.605Z,8.18
2023-03-26T02:54:45.400Z,8.75
2023-03-26T02:57:12.101Z,6.88
2023-03-26T02:59:38.742Z,7.30
2023-03-26T03:02:05.600Z,7.40
2023-03-26T03:04:32.215Z,7.03
2023-03-26T03:06:59.930Z,10.20
2023-03-26T03:09:26.596Z,10.15
2023-03-26T03:11:53.163Z,6.57
2023-03-26T03:14:20.317Z,6.25
2023-03-26T03:16:46.980Z,5.55
2023-03-26T03:19:13.893Z,9.02
2023-03-26T03:21:41.849Z,6.97
2023-03-26T03:24:09.265Z,5.40
2023-03-26T03:26:36.515Z,8.73
2023-03-26T03:29:03.271Z,8.95
2023-03-26T03:31:30.159Z,6.93
2023-03-26T03:33:58.339Z,7.05
2023-03-26T03:36:27.984Z,6.35
2023-03-26T03:38:56.347Z,5.57
2023-03-26T03:41:23.012Z,5.50
2023-03-26T03:43:50.133Z,6.20
2023-03-26T03:46:16.767Z,6.72
2023-03-26T03:48:49.708Z,9.43
2023-03-26T03:51:18.503Z,5.55
2023-03-26T03:53:46.154Z,5.63
2023-03-26T03:56:14.665Z,7.18
2023-03-26T03:58:41.840Z,7.75
2023-03-26T04:01:08.348Z,7.88
2023-03-26T04:03:38.813Z,5.90
2023-03-26T04:06:11.180Z,8.07
2023-03-26T04:08:38.041Z,5.85
2023-03-26T04:11:05.726Z,6.68
2023-03-26T04:13:32.392Z,8.10
2023-03-26T04:15:59.324Z,6.07
2023-03-26T04:18:26.575Z,5.85
2023-03-26T04:20:55.791Z,13.75
2023-03-26T04:23:23.335Z,6.07
2023-03-26T04:25:53.912Z,7.90
2023-03-26T04:28:46.552Z,4.97
2023-03-26T04:31:16.949Z,9.82
2023-03-26T04:33:47.321Z,8.30
2023-03-26T04:36:16.063Z,6.03
2023-03-26T04:38:45.512Z,9.52
2023-03-26T04:41:13.741Z,4.90
2023-03-26T04:43:47.354Z,5.80
2023-03-26T04:46:14.560Z,8.93
2023-03-26T04:48:41.499Z,6.28
2023-03-26T04:51:09.880Z,7.45
2023-03-26T04:53:36.900Z,7.80
2023-03-26T04:56:30.758Z,6.57
2023-03-26T04:59:00.306Z,7.82
2023-03-26T05:01:30.844Z,5.55
2023-03-26T05:03:58.729Z,7.75
2023-03-26T05:06:28.755Z,5.95
2023-03-26T05:08:55.446Z,7.50
2023-03-26T05:11:22.083Z,4.80
2023-03-26T05:13:48.662Z,7.60
2023-03-26T05:16:15.344Z,7.10
2023-03-26T05:18:42.041Z,6.45
2023-03-26T05:21:08.730Z,9.93
2023-03-26T05:23:35.381Z,4.82
2023-03-26T05:26:02.032Z,5.35
2023-03-26T05:28:28.716Z,5.10
2023-03-26T05:30:55.487Z,3.92
2023-03-26T05:33:22.543Z,6.18
2023-03-26T05:35:59.879Z,6.30
2023-03-26T05:38:28.996Z,6.05
2023-03-26T05:41:00.759Z,6.13
2023-03-26T05:43:28.076Z,4.90
2023-03-26T05:45:54.689Z,5.90
2023-03-26T05:48:22.564Z,6.03
2023-03-26T05:50:51.332Z,5.88
2023-03-26T05:53:18.492Z,3.95
2023-03-26T05:55:46.904Z,11.50
2023-03-26T05:58:13.866Z,6.07
2023-03-26T06:00:40.395Z,7.88
2023-03-26T06:03:12.717Z,4.75
2023-03-26T06:05:40.480Z,6.97
2023-03-26T06:08:07.201Z,7.28
2023-03-26T06:10:33.788Z,9.30
2023-03-26T06:13:00.332Z,4.35
2023-03-26T06:15:26.831Z,6.55
2023-03-26T06:17:53.543Z,5.82
2023-03-26T06:20:20.231Z,3.08
2023-03-26T06:22:46.745Z,7.47
2023-03-26T06:25:13.318Z,6.93
2023-03-26T06:27:40.112Z,7.10
2023-03-26T06:30:07.439Z,8.00
2023-03-26T06:32:34.165Z,5.75
2023-03-26T06:35:00.861Z,6.65
2023-03-26T06:37:27.415Z,8.18
2023-03-26T06:39:53.991Z,7.70
2023-03-26T06:42:20.746Z,4.75
2023-03-26T06:45:07.990Z,7.75
2023-03-26T06:47:34.729Z,8.43
2023-03-26T06:50:01.235Z,5.90
2023-03-26T06:52:28.784Z,6.13
2023-03-26T06:54:55.411Z,6.88
2023-03-26T06:57:22.264Z,6.78
2023-03-26T06:59:48.896Z,4.00
2023-03-26T07:02:15.802Z,4.13
2023-03-26T07:04:42.361Z,5.82
2023-03-26T07:07:09.000Z,4.05
2023-03-26T07:09:35.676Z,3.10
2023-03-26T07:12:02.175Z,3.60
2023-03-26T07:14:30.858Z,3.47
2023-03-26T07:16:58.878Z,3.63
2023-03-26T07:19:26.312Z,3.65
2023-03-26T07:21:53.207Z,2.38
2023-03-26T07:24:20.029Z,1.38
2023-03-26T07:27:34.810Z,2.40
2023-03-26T07:30:09.181Z,3.20
2023-03-26T07:32:58.457Z,1.67
2023-03-26T07:35:36.484Z,2.53
2023-03-26T07:38:17.129Z,2.33
2023-03-26T07:40:55.485Z,3.88
2023-03-26T07:43:34.194Z,2.70
2023-03-26T07:46:01.228Z,0.93
2023-03-26T07:48:37.922Z,2.03
2023-03-26T07:51:04.755Z,2.22
2023-03-26T07:53:31.530Z,1.90
2023-03-26T07:56:08.130Z,1.80
2023-03-26T07:59:03.332Z,1.58
2023-03-26T08:01:51.378Z,2.15
2023-03-26T08:04:26.321Z,2.13
2023-03-26T08:07:31.862Z,1.58
2023-03-26T08:10:13.385Z,1.92
2023-03-26T08:13:03.594Z,1.27
2023-03-26T08:15:39.763Z,3.28
2023-03-26T08:18:33.506Z,1.35
2023-03-26T08:21:22.081Z,2.20
2023-03-26T08:23:52.058Z,3.15
2023-03-26T08:27:03.025Z,7.60
2023-03-26T08:29:41.396Z,2.85
2023-03-26T08:32:16.453Z,2.38
2023-03-26T08:34:43.046Z,0.60
2023-03-26T08:37:09.914Z,4.68
2023-03-26T08:39:38.834Z,1.40
2023-03-26T08:42:27.086Z,1.88
2023-03-26T08:45:05.763Z,1.15
2023-03-26T08:47:32.452Z,1.45
2023-03-26T08:50:17.756Z,1.60
2023-03-26T08:53:02.914Z,1.00
2023-03-26T08:55:50.050Z,0.80
2023-03-26T08:58:35.193Z,1.40
2023-03-26T09:01:13.810Z,2.55
2023-03-26T09:04:11.187Z,1.65
2023-03-26T09:06:46.636Z,2.22
2023-03-26T09:09:34.915Z,2.15
2023-03-26T09:12:19.675Z,1.00
2023-03-26T09:14:49.093Z,1.48
2023-03-26T09:17:27.835Z,2.30
2023-03-26T09:20:13.343Z,4.93
2023-03-26T09:23:03.177Z,1.35
2023-03-26T09:25:29.747Z,2.70
2023-03-26T09:28:27.293Z,3.17
2023-03-26T09:31:17.891Z,1.70
2023-03-26T09:33:56.438Z,3.08
2023-03-26T09:36:57.400Z,1.85
2023-03-26T09:39:39.202Z,4.82
2023-03-26T09:42:26.953Z,1.75
2023-03-26T09:44:56.824Z,1.25
2023-03-26T09:47:57.488Z,3.42
2023-03-26T09:50:41.308Z,1.95
2023-03-26T09:53:13.910Z,2.35
2023-03-26T09:55:57.342Z,2.20
2023-03-26T09:58:53.005Z,1.65
2023-03-26T10:02:04.424Z,1.10
2023-03-26T10:05:00.899Z,3.40
2023-03-26T10:07:42.521Z,1.45
2023-03-26T10:10:26.097Z,1.73
2023-03-26T10:13:14.127Z,2.03
2023-03-26T10:16:13.983Z,1.25
2023-03-26T10:18:59.644Z,1.92
2023-03-26T10:21:54.852Z,4.00
2023-03-26T10:24:36.553Z,1.27
2023-03-26T10:27:28.409Z,1.67
2023-03-26T10:30:03.594Z,4.05
2023-03-26T10:32:47.192Z,1.95
2023-03-26T10:35:38.932Z,1.20
2023-03-26T10:38:16.040Z,1.63
2023-03-26T10:43:37.145Z,1.33
2023-03-26T10:46:31.814Z,3.08
2023-03-26T10:49:26.199Z,2.03
2023-03-26T10:52:02.261Z,1.42
2023-03-26T10:54:57.979Z,1.45
2023-03-26T10:57:33.614Z,2.47
2023-03-26T11:00:14.723Z,2.30
2023-03-26T11:03:04.517Z,1.25
2023-03-26T11:05:49.690Z,1.80
2023-03-26T11:08:31.851Z,1.55
2023-03-26T11:11:38.700Z,1.52
2023-03-26T11:14:10.808Z,2.30
2023-03-26T11:16:40.424Z,2.78
2023-03-26T11:19:13.125Z,1.58
2023-03-26T11:22:16.424Z,1.63
2023-03-26T11:25:09.019Z,2.10
2023-03-26T11:27:50.594Z,3.00
2023-03-26T11:30:36.330Z,1.27
2023-03-26T11:33:11.701Z,2.50
2023-03-26T11:35:45.687Z,3.00
2023-03-26T11:38:21.595Z,1.85
2023-03-26T11:40:53.269Z,3.58
2023-03-26T11:43:25.327Z,3.75
2023-03-26T11:45:53.795Z,3.55
2023-03-26T11:48:31.972Z,4.18
2023-03-26T11:51:08.324Z,3.40
2023-03-26T11:53:39.720Z,6.80
2023-03-26T11:56:19.237Z,4.28
2023-03-26T11:58:52.258Z,3.83
2023-03-26T12:01:29.953Z,5.15
2023-03-26T12:04:13.574Z,6.20
2023-03-26T12:06:51.777Z,3.83
2023-03-26T12:09:19.920Z,3.40
2023-03-26T12:11:49.410Z,3.22
2023-03-26T12:14:22.695Z,3.20
2023-03-26T12:17:07.552Z,2.33
2023-03-26T12:19:40.244Z,2.47
2023-03-26T12:22:29.647Z,1.67
2023-03-26T12:25:20.700Z,1.73
2023-03-26T12:28:03.053Z,1.75
2023-03-26T12:30:38.185Z,0.60
2023-03-26T12:33:07.483Z,2.17
2023-03-26T12:35:35.687Z,1.52
2023-03-26T12:38:33.853Z,3.05
2023-03-26T12:43:51.614Z,1.25
2023-03-26T12:44:55.972Z,1.13
2023-03-26T12:47:59.128Z,2.65
2023-03-26T12:50:12.705Z,2.00
2023-03-26T12:52:55.234Z,2.50
2023-03-26T12:55:35.596Z,2.95
2023-03-26T12:58:13.801Z,2.42
2023-03-26T13:01:03.172Z,2.25
2023-03-26T13:03:55.334Z,2.55
2023-03-26T13:07:00.638Z,6.32
2023-03-26T13:10:00.772Z,3.15
2023-03-26T13:12:41.065Z,3.55
2023-03-26T13:15:17.878Z,3.13
2023-03-26T13:18:07.573Z,2.78
2023-03-26T13:21:08.263Z,1.83
2023-03-26T13:23:34.921Z,3.40
2023-03-26T13:26:01.524Z,5.55
2023-03-26T13:28:49.896Z,1.88
2023-03-26T13:31:22.394Z,3.45
2023-03-26T13:34:39.973Z,2.35
2023-03-26T13:37:28.961Z,1.85
2023-03-26T13:39:55.659Z,4.10
2023-03-26T13:42:28.864Z,2.55
2023-03-26T13:45:05.254Z,2.63
2023-03-26T13:47:41.075Z,2.63
2023-03-26T13:50:19.211Z,2.63
2023-03-26T13:52:55.319Z,4.13
2023-03-26T13:55:30.613Z,3.40
2023-03-26T13:58:02.000Z,3.58
2023-03-26T14:00:55.164Z,2.83
2023-03-26T14:03:30.120Z,2.90
2023-03-26T14:06:02.130Z,3.30
2023-03-26T14:08:37.907Z,3.47
2023-03-26T14:11:16.354Z,1.90
2023-03-26T14:13:57.347Z,3.80
2023-03-26T14:16:29.611Z,3.10
2023-03-26T14:19:04.841Z,2.20
2023-03-26T14:22:27.023Z,2.58
2023-03-26T14:25:20.522Z,1.63
2023-03-26T14:28:21.724Z,2.95
2023-03-26T14:31:21.039Z,2.65
2023-03-26T14:34:12.904Z,1.77
2023-03-26T14:37:07.541Z,1.85
2023-03-26T14:39:37.196Z,1.35
2023-03-26T14:42:29.294Z,1.58
2023-03-26T14:45:20.971Z,2.72
2023-03-26T14:48:01.452Z,0.90
2023-03-26T14:50:50.697Z,0.98
2023-03-26T14:53:34.385Z,3.92
2023-03-26T14:56:16.503Z,3.45
2023-03-26T14:58:46.203Z,1.58
2023-03-26T15:01:38.451Z,2.33
2023-03-26T15:04:43.680Z,2.30
2023-03-26T15:07:47.185Z,1.92
2023-03-26T15:10:44.246Z,2.55
2023-03-26T15:13:24.390Z,2.05
2023-03-26T15:16:17.503Z,1.20
2023-03-26T15:19:06.413Z,1.35
2023-03-26T15:21:54.873Z,2.72
2023-03-26T15:24:35.416Z,1.85
2023-03-26T15:27:31.665Z,2.10
2023-03-26T15:30:30.387Z,1.45
2023-03-26T15:33:34.301Z,1.88
2023-03-26T15:36:32.595Z,2.35
2023-03-26T15:39:30.053Z,3.28
2023-03-26T15:42:25.629Z,3.00
2023-03-26T15:45:11.612Z,2.20
2023-03-26T15:47:49.874Z,1.95
2023-03-26T15:50:27.053Z,1.80
2023-03-26T15:53:10.264Z,3.15
2023-03-26T15:58:21.484Z,1.90
2023-03-26T16:01:07.901Z,2.75
2023-03-26T16:03:51.301Z,2.33
2023-03-26T16:06:31.272Z,3.40
2023-03-26T16:09:17.136Z,4.15
2023-03-26T16:11:57.100Z,2.75
2023-03-26T16:14:34.388Z,2.22
2023-03-26T16:17:05.374Z,1.15
2023-03-26T16:19:50.664Z,3.17
2023-03-26T16:22:42.952Z,1.63
2023-03-26T16:25:34.153Z,2.08
2023-03-26T16:28:21.292Z,1.35
2023-03-26T16:31:36.210Z,1.77
2023-03-26T16:34:05.426Z,1.25
2023-03-26T16:36:37.079Z,1.58
2023-03-26T16:39:07.376Z,1.85
2023-03-26T16:41:40.158Z,1.70
2023-03-26T16:44:19.903Z,2.20
2023-03-26T16:46:52.861Z,1.38
2023-03-26T16:49:34.353Z,1.45
2023-03-26T16:52:21.724Z,1.73
2023-03-26T16:55:19.999Z,1.60
2023-03-26T16:58:04.885Z,1.23
2023-03-26T17:00:48.251Z,1.20
2023-03-26T17:05:56.742Z,3.72
2023-03-26T17:08:44.613Z,1.08
2023-03-26T17:11:39.978Z,2.20
2023-03-26T17:14:27.355Z,2.08
2023-03-26T17:17:02.951Z,1.83
2023-03-26T17:19:39.581Z,1.85
2023-03-26T17:22:38.315Z,1.77
2023-03-26T17:25:32.491Z,1.05
2023-03-26T17:28:22.414Z,1.33
2023-03-26T17:31:23.886Z,3.08
2023-03-26T17:33:50.763Z,1.58
2023-03-26T17:36:24.154Z,3.33
2023-03-26T17:38:50.716Z,1.35
2023-03-26T17:41:56.115Z,0.82
2023-03-26T17:44:42.537Z,1.38
2023-03-26T17:47:22.347Z,0.60
2023-03-26T17:49:54.093Z,1.45
2023-03-26T17:52:38.794Z,2.03
2023-03-26T17:55:09.802Z,1.45
2023-03-26T17:57:50.520Z,2.03
2023-03-26T18:00:23.634Z,1.63
2023-03-26T18:02:55.527Z,1.73
2023-03-26T18:05:26.370Z,4.22
2023-03-26T18:08:08.421Z,4.57
2023-03-26T18:11:08.924Z,2.22
2023-03-26T18:13:53.646Z,2.10
2023-03-26T18:16:32.590Z,3.28
2023-03-26T18:19:02.365Z,2.40
2023-03-26T18:21:37.678Z,3.90
2023-03-26T18:24:06.820Z,2.95
2023-03-26T18:26:37.477Z,3.47
2023-03-26T18:29:35.360Z,1.65
2023-03-26T18:32:03.811Z,1.48
2023-03-26T18:34:33.136Z,4.75
2023-03-26T18:37:11.634Z,6.30
2023-03-26T18:39:38.584Z,3.97
2023-03-26T18:42:07.158Z,3.05
2023-03-26T18:44:39.154Z,3.13
2023-03-26T18:47:10.336Z,2.78
2023-03-26T18:49:37.978Z,7.90
2023-03-26T18:52:05.038Z,3.45
2023-03-26T18:54:35.469Z,2.80
2023-03-26T18:57:15.171Z,4.40
2023-03-26T18:59:45.468Z,3.80
2023-03-26T19:02:14.554Z,2.75
2023-03-26T19:04:46.059Z,4.13
2023-03-26T19:07:22.521Z,4.55
2023-03-26T19:09:50.218Z,5.45
2023-03-26T19:12:20.511Z,3.17
2023-03-26T19:15:10.336Z,4.65
2023-03-26T19:17:41.318Z,3.97
2023-03-26T19:22:42.338Z,2.88
2023-03-26T19:25:21.766Z,3.65
2023-03-26T19:27:50.625Z,1.73
2023-03-26T19:30:31.735Z,4.78
2023-03-26T19:33:12.911Z,1.55
2023-03-26T19:35:42.174Z,3.15
2023-03-26T19:38:27.615Z,2.97
2023-03-26T19:40:58.154Z,5.68
2023-03-26T19:43:25.818Z,1.48
2023-03-26T19:45:59.217Z,2.38
2023-03-26T19:48:46.641Z,2.42
2023-03-26T19:51:20.421Z,0.82
2023-03-26T19:53:51.581Z,2.72
2023-03-26T19:58:45.985Z,1.80
2023-03-26T20:01:20.086Z,6.40
2023-03-26T20:03:49.265Z,3.78
2023-03-26T20:06:18.380Z,2.83
2023-03-26T20:08:45.925Z,3.42
2023-03-26T20:11:16.598Z,1.15
2023-03-26T20:13:43.203Z,2.47
2023-03-26T20:16:23.458Z,1.52
2023-03-26T20:18:50.826Z,2.60
2023-03-26T20:21:18.071Z,1.58
2023-03-26T20:23:44.867Z,1.52
2023-03-26T20:26:13.344Z,2.58
2023-03-26T20:28:47.731Z,2.47
2023-03-26T20:31:22.192Z,2.38
2023-03-26T20:33:50.652Z,2.92
2023-03-26T20:36:33.881Z,4.35
2023-03-26T20:39:02.420Z,1.75
2023-03-26T20:41:29.087Z,1.48
2023-03-26T20:43:55.698Z,1.60
2023-03-26T20:46:31.389Z,1.92
2023-03-26T20:48:58.934Z,2.67
2023-03-26T20:51:28.507Z,1.17
2023-03-26T20:53:55.740Z,3.40
2023-03-26T20:56:22.735Z,2.83
2023-03-26T20:58:54.743Z,1.77
2023-03-26T21:01:27.857Z,3.17
2023-03-26T21:03:54.875Z,2.17
2023-03-26T21:06:21.359Z,2.08
2023-03-26T21:08:48.140Z,1.10
2023-03-26T21:11:55.966Z,1.23
2023-03-26T21:14:30.695Z,2.70
2023-03-26T21:16:58.098Z,1.05
2023-03-26T21:19:25.237Z,0.60
2023-03-26T21:22:18.218Z,2.58
2023-03-26T21:24:51.075Z,1.15
2023-03-26T21:27:33.969Z,1.20
2023-03-26T21:30:00.713Z,1.13
2023-03-26T21:32:27.942Z,2.40
2023-03-26T21:34:59.111Z,1.38
2023-03-26T21:37:26.834Z,1.77
2023-03-26T21:39:53.687Z,0.93
2023-03-26T21:42:20.616Z,1.50
2023-03-26T21:44:47.750Z,1.83
2023-03-26T21:47:14.922Z,1.02
2023-03-26T21:49:41.888Z,1.30
2023-03-26T21:52:14.976Z,0.70
2023-03-26T21:54:43.343Z,1.85
2023-03-26T21:57:51.649Z,2.05
2023-03-26T22:00:19.051Z,1.65
2023-03-26T22:03:18.479Z,0.70
2023-03-26T22:05:52.376Z,1.08
2023-03-26T22:08:42.739Z,0.95
2023-03-26T22:11:11.541Z,0.68
2023-03-26T22:13:38.906Z,1.40
2023-03-26T22:16:07.326Z,0.73
2023-03-26T22:18:34.802Z,0.60
2023-03-26T22:21:01.737Z,0.73
2023-03-26T22:23:36.483Z,0.85
2023-03-26T22:26:04.674Z,0.40
2023-03-26T22:28:31.927Z,0.50
2023-03-26T22:30:59.397Z,0.63
2023-03-26T22:33:26.771Z,0.38
2023-03-26T22:35:56.079Z,0.30
2023-03-26T22:38:23.193Z,0.10
2023-03-26T22:40:57.448Z,1.60
2023-03-26T22:43:24.694Z,0.40
2023-03-26T22:45:51.440Z,0.32
2023-03-26T22:48:18.375Z,0.90
2023-03-26T22:50:45.063Z,0.15
2023-03-26T22:53:11.736Z,0.30
2023-03-26T22:55:38.323Z,0.73
2023-03-26T22:58:04.945Z,0.35
2023-03-26T23:00:32.367Z,0.20
2023-03-26T23:03:00.531Z,0.22
2023-03-26T23:05:27.927Z,1.30
2023-03-26T23:07:54.414Z,0.50
2023-03-26T23:10:21.824Z,0.20
2023-03-26T23:12:49.723Z,0.40
2023-03-26T23:15:16.272Z,0.57
2023-03-26T23:17:42.876Z,0.70
2023-03-26T23:20:15.124Z,0.10
2023-03-26T23:22:43.044Z,0.55
2023-03-26T23:25:10.942Z,0.52
2023-03-26T23:27:38.023Z,1.05
2023-03-26T23:30:05.474Z,0.73
2023-03-26T23:32:33.060Z,1.13
2023-03-26T23:34:59.747Z,0.30
2023-03-26T23:37:26.770Z,0.30
2023-03-26T23:39:53.704Z,0.63
2023-03-26T23:42:28.215Z,0.40
2023-03-26T23:44:56.969Z,0.25
2023-03-26T23:47:24.011Z,0.63
2023-03-26T23:49:51.012Z,0.20
2023-03-26T23:52:17.716Z,0.10
2023-03-26T23:54:45.465Z,0.75
2023-03-26T23:57:12.140Z,0.45
2023-03-26T23:59:41.439Z,0.65
